Time;durP1;ratioP1;P1;durP2;ratioP2;P2;SDS_P1;SDS_P2;PMS_P1;PMS_P2;Temp;Humidity;BMP_temperature;BMP_pressure;BME280_temperature;BME280_humidity;BME280_pressure;Samples;Min_cycle;Max_cycle;Signal;HPM_P1;HPM_P2
2021/10/20 00:03:46;;;;;;;6.00;4.92;;;;;;;16.44;76.34;100275.98;2840643;84;21008;-60
2021/10/20 00:07:49;;;;;;;7.70;5.92;;;;;;;16.36;76.64;100259.34;2840764;84;21008;-61
2021/10/20 00:11:53;;;;;;;7.20;6.00;;;;;;;16.35;76.50;100258.52;2840782;83;21055;-64
2021/10/20 00:15:55;;;;;;;6.92;5.62;;;;;;;16.33;76.78;100244.91;2840831;84;20984;-63
2021/10/20 00:20:06;;;;;;;12.73;6.75;;;;;;;16.37;76.99;100252.48;2841013;84;21004;-62
2021/10/20 00:24:04;;;;;;;11.40;6.05;;;;;;;16.34;77.17;100259.53;2840302;83;21023;-63
2021/10/20 00:28:09;;;;;;;9.65;6.70;;;;;;;16.35;77.01;100255.84;2840726;84;21013;-60
2021/10/20 00:32:11;;;;;;;8.65;6.97;;;;;;;16.32;76.84;100258.85;2840765;84;21016;-62
2021/10/20 00:36:14;;;;;;;6.25;5.65;;;;;;;16.26;77.16;100260.83;2840699;84;21004;-60
2021/10/20 00:40:16;;;;;;;8.90;6.53;;;;;;;16.17;77.47;100245.20;2840783;83;21008;-63
2021/10/20 00:44:18;;;;;;;6.72;6.00;;;;;;;16.09;77.99;100227.23;2840628;84;20976;-63
2021/10/20 00:48:20;;;;;;;5.95;5.03;;;;;;;16.09;78.29;100242.00;2840637;84;20992;-62
2021/10/20 00:52:24;;;;;;;15.05;5.75;;;;;;;16.12;78.61;100233.65;2840409;84;20964;-63
2021/10/20 00:56:27;;;;;;;7.83;4.95;;;;;;;16.14;79.03;100226.76;2840210;83;21067;-61
2021/10/20 01:00:30;;;;;;;6.05;5.42;;;;;;;16.16;79.46;100223.92;2843040;83;20999;-62
2021/10/20 01:04:35;;;;;;;6.97;5.87;;;;;;;16.16;80.04;100226.61;2845504;82;21044;-62
2021/10/20 01:08:38;;;;;;;7.00;5.60;;;;;;;16.21;79.64;100219.75;2845671;83;21000;-62
2021/10/20 01:12:40;;;;;;;5.83;4.75;;;;;;;16.27;79.70;100218.23;2845434;83;21008;-61
2021/10/20 01:16:43;;;;;;;6.47;5.30;;;;;;;16.26;79.89;100213.86;2845635;83;20977;-60
2021/10/20 01:20:51;;;;;;;11.45;6.00;;;;;;;16.29;79.68;100212.19;2845640;83;21039;-63
2021/10/20 01:24:52;;;;;;;5.72;4.95;;;;;;;16.34;79.71;100196.94;2845476;83;20969;-64
2021/10/20 01:28:54;;;;;;;9.35;5.65;;;;;;;16.35;79.56;100191.42;2822229;82;21004;-62
2021/10/20 01:33:01;;;;;;;5.85;4.90;;;;;;;16.36;79.43;100189.06;2798182;84;21027;-61
2021/10/20 01:37:05;;;;;;;5.80;5.30;;;;;;;16.33;79.54;100181.35;2798062;85;20984;-61
2021/10/20 01:41:07;;;;;;;6.78;4.90;;;;;;;16.30;79.71;100178.97;2797869;84;21003;-61
2021/10/20 01:45:16;;;;;;;7.37;5.40;;;;;;;16.26;79.59;100173.61;2798231;85;21059;-62
2021/10/20 01:49:18;;;;;;;7.00;4.53;;;;;;;16.22;79.66;100159.70;2798103;85;20996;-61
2021/10/20 01:53:20;;;;;;;12.90;3.98;;;;;;;16.13;80.07;100157.52;2798033;84;21071;-61
2021/10/20 01:57:21;;;;;;;5.97;4.60;;;;;;;16.08;80.23;100151.78;2798102;84;21011;-60
2021/10/20 02:01:24;;;;;;;5.42;4.50;;;;;;;16.08;80.08;100147.75;2794344;84;20992;-62
2021/10/20 02:05:48;;;;;;;6.22;5.10;;;;;;;16.04;80.24;100154.46;2793212;85;21248;-62
2021/10/20 02:09:50;;;;;;;4.37;3.85;;;;;;;15.98;80.13;100152.45;2793123;85;20992;-61
2021/10/20 02:13:51;;;;;;;6.25;4.20;;;;;;;15.83;80.75;100145.52;2793015;85;21036;-61
2021/10/20 02:18:00;;;;;;;6.58;4.45;;;;;;;15.73;81.29;100140.30;2793359;85;21031;-61
2021/10/20 02:22:04;;;;;;;6.85;4.90;;;;;;;15.67;81.68;100136.41;2793188;85;21020;-61
2021/10/20 02:26:06;;;;;;;6.22;4.95;;;;;;;15.60;82.01;100133.20;2793014;85;21059;-63
2021/10/20 02:30:09;;;;;;;8.23;6.20;;;;;;;15.53;82.23;100128.98;2793111;85;21040;-60
2021/10/20 02:34:23;;;;;;;9.95;6.22;;;;;;;15.47;82.62;100129.13;2792998;85;21047;-61
2021/10/20 02:38:25;;;;;;;8.40;6.03;;;;;;;15.44;82.56;100132.14;2792626;85;21126;-62
2021/10/20 02:42:31;;;;;;;6.28;5.53;;;;;;;15.42;82.39;100128.27;2793021;85;21000;-63
2021/10/20 02:46:33;;;;;;;;;;;;;;;15.31;83.74;100115.66;2795499;85;20984;-62
2021/10/20 02:50:40;;;;;;;8.03;5.50;;;;;;;15.28;83.77;100114.98;2790672;85;20113;-61
2021/10/20 02:54:42;;;;;;;8.05;5.78;;;;;;;15.18;84.92;100114.77;2827276;84;20984;-61
2021/10/20 02:58:45;;;;;;;8.18;5.78;;;;;;;15.15;84.80;100103.89;2817450;84;21047;-61
2021/10/20 03:02:47;;;;;;;9.15;5.90;;;;;;;15.16;84.68;100102.89;2794516;84;21091;-62
2021/10/20 03:06:49;;;;;;;8.75;6.22;;;;;;;15.12;86.16;100094.81;2827474;84;21020;-62
2021/10/20 03:10:51;;;;;;;7.67;5.60;;;;;;;15.11;86.46;100089.11;2826935;84;21391;-60
2021/10/20 03:14:58;;;;;;;7.47;5.50;;;;;;;15.04;87.06;100083.58;2826969;84;21051;-60
2021/10/20 03:19:01;;;;;;;9.05;6.40;;;;;;;15.04;87.38;100087.60;2827526;84;21038;-60
2021/10/20 03:23:03;;;;;;;10.32;6.03;;;;;;;15.10;86.87;100088.77;2787803;84;21009;-65
2021/10/20 03:27:04;;;;;;;8.20;6.28;;;;;;;15.18;86.69;100094.19;2778353;85;21048;-64
2021/10/20 03:31:37;;;;;;;7.60;6.17;;;;;;;15.14;87.38;100090.16;2778162;85;21466;-65
2021/10/20 03:35:38;;;;;;;8.78;7.15;;;;;;;15.20;87.43;100093.52;2778328;85;21016;-66
2021/10/20 03:39:40;;;;;;;6.92;6.03;;;;;;;15.21;87.49;100087.16;2778475;85;21068;-66
2021/10/20 03:43:42;;;;;;;10.82;8.10;;;;;;;15.20;87.55;100094.02;2777805;86;21004;-67
2021/10/20 03:47:45;;;;;;;8.75;7.40;;;;;;;15.15;88.16;100087.81;2778200;85;20942;-64
2021/10/20 03:51:47;;;;;;;12.43;8.25;;;;;;;15.14;87.84;100094.17;2778262;85;21044;-64
2021/10/20 03:55:50;;;;;;;9.83;7.08;;;;;;;15.13;88.07;100077.25;2778288;85;21071;-64
2021/10/20 03:59:52;;;;;;;11.55;7.90;;;;;;;15.21;87.60;100080.47;2779193;85;21169;-64
2021/10/20 04:03:53;;;;;;;10.93;6.55;;;;;;;15.18;87.82;100084.81;2744628;85;21004;-67
2021/10/20 04:08:15;;;;;;;11.25;7.17;;;;;;;15.22;87.57;100082.62;2884953;82;21027;-65
2021/10/20 04:12:17;;;;;;;8.65;6.60;;;;;;;15.21;87.47;100073.77;2884683;82;21047;-64
2021/10/20 04:16:21;;;;;;;7.67;6.45;;;;;;;15.20;87.72;100073.43;2884555;82;20967;-65
2021/10/20 04:20:25;;;;;;;8.78;6.97;;;;;;;15.18;87.65;100068.73;2884691;82;21015;-66
2021/10/20 04:24:26;;;;;;;8.85;7.25;;;;;;;15.19;87.64;100073.09;2828418;84;20964;-65
2021/10/20 04:28:28;;;;;;;8.98;7.00;;;;;;;15.20;87.47;100077.45;2935190;81;20983;-65
2021/10/20 04:32:30;;;;;;;8.18;7.37;;;;;;;15.19;87.74;100069.56;2778550;85;21040;-65
2021/10/20 04:36:50;;;;;;;10.08;7.55;;;;;;;15.23;87.53;100070.42;2928375;81;21007;-66
2021/10/20 04:40:52;;;;;;;8.50;6.92;;;;;;;15.25;87.08;100063.06;2837006;84;21040;-65
2021/10/20 04:44:56;;;;;;;9.33;6.58;;;;;;;15.25;86.90;100061.72;2934498;81;21047;-66
2021/10/20 04:48:58;;;;;;;8.80;7.75;;;;;;;15.27;86.81;100054.35;2836008;84;20992;-66
2021/10/20 04:53:00;;;;;;;7.70;6.72;;;;;;;15.30;86.49;100055.88;2934981;81;20971;-67
2021/10/20 04:57:02;;;;;;;8.38;6.85;;;;;;;15.22;86.89;100047.80;2836557;84;21067;-66
2021/10/20 05:01:03;;;;;;;8.70;7.62;;;;;;;15.26;86.46;100037.94;2929324;80;21028;-66
2021/10/20 05:05:08;;;;;;;8.20;6.97;;;;;;;15.27;86.14;100043.64;2792996;85;21300;-65
2021/10/20 05:09:09;;;;;;;8.65;7.05;;;;;;;15.28;85.88;100041.81;2840429;84;21044;-66
2021/10/20 05:13:14;;;;;;;10.00;7.17;;;;;;;15.24;85.85;100043.97;2827565;84;21067;-66
2021/10/20 05:17:16;;;;;;;7.85;7.03;;;;;;;15.23;85.66;100040.95;2827380;84;21023;-66
2021/10/20 05:21:31;;;;;;;10.60;8.75;;;;;;;15.22;85.55;100033.91;2827540;84;20976;-66
2021/10/20 05:25:33;;;;;;;9.95;7.35;;;;;;;15.18;85.54;100023.19;2827279;84;21024;-65
2021/10/20 05:29:38;;;;;;;9.93;8.50;;;;;;;15.15;85.57;100022.18;2827437;84;21052;-67
2021/10/20 05:33:39;;;;;;;7.83;6.95;;;;;;;15.14;85.48;100019.16;2827494;83;21083;-66
2021/10/20 05:37:41;;;;;;;8.20;7.10;;;;;;;15.15;85.41;100018.16;2827320;84;21063;-67
2021/10/20 05:41:43;;;;;;;8.80;7.10;;;;;;;15.11;85.55;100019.47;2827487;84;20996;-67
2021/10/20 05:46:33;;;;;;;7.03;5.80;;;;;;;15.14;85.44;100010.61;2827159;84;21035;-66
2021/10/20 05:50:36;;;;;;;9.30;6.97;;;;;;;15.12;85.38;100003.24;2827375;83;21016;-66
2021/10/20 05:54:37;;;;;;;9.93;6.95;;;;;;;15.14;85.38;100000.41;2827524;84;21016;-66
2021/10/20 05:58:39;;;;;;;8.08;7.28;;;;;;;15.20;85.20;99995.73;2827311;84;21055;-66
2021/10/20 06:02:44;;;;;;;11.05;6.50;;;;;;;15.20;85.15;99989.03;2839249;83;21035;-68
2021/10/20 06:06:48;;;;;;;11.20;7.37;;;;;;;15.24;85.07;99995.73;2811390;84;21067;-66
2021/10/20 06:10:51;;;;;;;7.53;5.87;;;;;;;15.30;84.72;99995.59;2861528;83;20995;-68
2021/10/20 06:14:52;;;;;;;7.90;7.10;;;;;;;15.32;84.79;99988.22;2811519;84;20976;-66
2021/10/20 06:18:55;;;;;;;10.45;9.08;;;;;;;15.36;84.65;99987.41;2861633;83;20979;-66
2021/10/20 06:22:57;;;;;;;10.85;7.45;;;;;;;15.36;84.42;99984.72;2811548;84;21048;-66
2021/10/20 06:26:59;;;;;;;9.43;7.15;;;;;;;15.36;84.39;99986.06;2861814;83;21066;-65
2021/10/20 06:31:01;;;;;;;7.40;6.62;;;;;;;15.42;84.29;99978.17;2811818;84;20960;-66
2021/10/20 06:35:07;;;;;;;6.95;5.72;;;;;;;15.46;83.93;99980.03;2862183;81;21022;-66
2021/10/20 06:39:32;;;;;;;9.90;6.58;;;;;;;15.53;83.58;99973.02;2814767;84;20974;-66
2021/10/20 06:43:34;;;;;;;7.78;7.00;;;;;;;15.65;83.60;99965.49;2862614;82;21008;-66
2021/10/20 06:47:37;;;;;;;7.70;6.65;;;;;;;15.71;82.76;99961.28;2862007;83;21030;-67
2021/10/20 06:51:47;;;;;;;9.45;7.62;;;;;;;15.81;82.43;99952.58;2812037;84;20968;-65
2021/10/20 06:55:48;;;;;;;8.55;5.60;;;;;;;15.87;82.30;99959.61;2862011;81;20992;-66
2021/10/20 06:59:50;;;;;;;7.90;5.90;;;;;;;16.03;81.58;99953.44;2811744;84;21086;-66
2021/10/20 07:03:52;;;;;;;7.08;6.35;;;;;;;16.11;81.60;99949.39;2846909;83;20941;-68
2021/10/20 07:08:07;;;;;;;8.05;6.37;;;;;;;16.23;81.39;99948.03;2836941;84;21055;-66
2021/10/20 07:12:09;;;;;;;7.47;6.67;;;;;;;16.31;81.05;99959.27;2787007;85;21039;-66
2021/10/20 07:16:10;;;;;;;11.65;6.05;;;;;;;16.44;80.19;99953.35;2935060;81;21039;-68
2021/10/20 07:20:14;;;;;;;7.58;5.70;;;;;;;16.56;80.29;99947.92;2789444;85;20988;-67
2021/10/20 07:24:15;;;;;;;10.70;5.10;;;;;;;16.63;78.74;99942.70;2935215;81;20956;-66
2021/10/20 07:28:17;;;;;;;18.40;5.70;;;;;;;16.76;78.78;99938.10;2789459;85;21043;-68
2021/10/20 07:32:21;;;;;;;14.05;5.92;;;;;;;16.91;78.64;99940.91;2934912;81;21031;-66
2021/10/20 07:36:23;;;;;;;7.28;5.40;;;;;;;17.04;78.17;99936.33;2836746;84;21008;-69
2021/10/20 07:40:26;;;;;;;7.20;4.87;;;;;;;17.10;77.35;99929.42;2934997;81;21489;-67
2021/10/20 07:44:28;;;;;;;9.85;5.22;;;;;;;17.28;76.21;99927.25;2935291;81;21004;-66
2021/10/20 07:48:33;;;;;;;5.22;4.70;;;;;;;17.43;76.45;99925.66;2789650;85;20989;-66
2021/10/20 07:52:35;;;;;;;6.05;5.12;;;;;;;17.53;76.21;99923.06;2935274;81;20965;-65
2021/10/20 07:56:42;;;;;;;6.40;4.95;;;;;;;17.52;75.27;99921.39;2935504;81;21039;-67
2021/10/20 08:00:54;;;;;;;5.85;4.65;;;;;;;17.60;75.56;99920.98;2939471;81;21015;-67
2021/10/20 08:04:56;;;;;;;8.73;4.37;;;;;;;17.71;74.91;99908.45;2940299;80;21058;-68
2021/10/20 08:08:58;;;;;;;6.60;4.55;;;;;;;17.85;74.72;99907.63;2939550;81;21015;-68
2021/10/20 08:13:27;;;;;;;5.65;4.12;;;;;;;17.96;74.28;99904.18;2939434;81;20928;-69
2021/10/20 08:17:29;;;;;;;6.87;4.40;;;;;;;18.09;73.73;99890.97;2939428;81;21027;-66
2021/10/20 08:21:41;;;;;;;6.87;4.45;;;;;;;18.28;73.41;99887.39;2939456;81;20956;-66
2021/10/20 08:25:43;;;;;;;4.17;3.75;;;;;;;18.37;72.15;99884.91;2939569;81;21016;-66
2021/10/20 08:29:52;;;;;;;3.33;3.02;;;;;;;18.56;71.86;99881.31;2939314;81;21003;-69
2021/10/20 08:33:54;;;;;;;3.52;3.22;;;;;;;18.67;71.01;99875.95;2939454;81;21011;-68
2021/10/20 08:38:03;;;;;;;4.75;3.10;;;;;;;18.74;70.64;99872.00;2939423;81;20964;-67
2021/10/20 08:42:05;;;;;;;4.97;4.00;;;;;;;18.78;70.14;99861.16;2939286;81;20992;-66
2021/10/20 08:46:14;;;;;;;7.45;4.67;;;;;;;18.82;70.52;99853.86;2939540;81;21287;-66
2021/10/20 08:50:24;;;;;;;5.80;3.70;;;;;;;18.94;70.34;99852.84;2939201;81;21023;-69
2021/10/20 08:54:25;;;;;;;4.00;3.47;;;;;;;19.03;69.82;99850.03;2936604;81;20971;-69
2021/10/20 08:58:28;;;;;;;12.10;3.40;;;;;;;19.12;68.05;99846.20;2939141;81;21482;-68
2021/10/20 09:02:36;;;;;;;6.33;3.27;;;;;;;19.40;69.18;99839.50;2938751;80;21054;-67
2021/10/20 09:06:35;;;;;;;5.17;2.87;;;;;;;19.45;67.86;99834.85;2946567;80;21019;-67
2021/10/20 09:10:37;;;;;;;6.20;4.40;;;;;;;19.63;66.86;99828.14;2953152;80;21031;-68
2021/10/20 09:14:46;;;;;;;4.50;3.12;;;;;;;19.80;67.20;99827.34;2953237;80;20998;-66
2021/10/20 09:18:48;;;;;;;5.78;3.33;;;;;;;20.00;66.81;99813.16;2953554;80;21038;-68
2021/10/20 09:23:07;;;;;;;3.70;2.98;;;;;;;20.12;65.94;99817.78;2953286;80;21019;-68
2021/10/20 09:27:25;;;;;;;5.53;3.20;;;;;;;20.20;64.79;99807.84;2953310;80;20991;-67
2021/10/20 09:31:27;;;;;;;4.62;2.83;;;;;;;20.28;63.86;99813.09;2953212;80;20987;-67
2021/10/20 09:35:30;;;;;;;2.72;2.52;;;;;;;20.19;64.01;99799.42;2953210;80;20964;-68
2021/10/20 09:39:34;;;;;;;3.20;2.60;;;;;;;20.37;63.45;99805.64;2953140;80;21043;-66
2021/10/20 09:43:55;;;;;;;4.80;3.35;;;;;;;20.58;63.71;99803.30;2953358;80;21054;-66
2021/10/20 09:48:22;;;;;;;3.37;2.60;;;;;;;20.71;63.26;99803.03;2953265;80;21047;-66
2021/10/20 09:52:25;;;;;;;;;;;;;;;20.80;61.86;99791.01;2955728;80;20975;-66
2021/10/20 09:56:34;;;;;;;5.75;3.20;;;;;;;20.90;61.61;99781.98;2953213;80;20207;-66
2021/10/20 10:00:48;;;;;;;4.15;3.40;;;;;;;20.94;61.30;99771.07;2953081;80;21027;-68
2021/10/20 10:04:49;;;;;;;7.20;3.30;;;;;;;21.06;61.18;99766.41;2951567;80;20988;-66
2021/10/20 10:08:51;;;;;;;5.45;3.02;;;;;;;21.15;61.02;99764.33;2939128;81;21003;-66
2021/10/20 10:13:20;;;;;;;7.25;3.12;;;;;;;21.25;59.85;99752.05;2939140;81;20972;-66
2021/10/20 10:17:23;;;;;;;4.78;3.05;;;;;;;21.38;59.74;99744.94;2939159;81;21019;-67
2021/10/20 10:21:42;;;;;;;8.65;3.05;;;;;;;21.54;59.39;99748.56;2939058;81;20968;-66
2021/10/20 10:25:44;;;;;;;4.08;2.17;;;;;;;21.64;58.46;99740.54;2939112;81;21023;-64
2021/10/20 10:30:04;;;;;;;3.60;2.20;;;;;;;21.80;58.08;99736.02;2939241;81;20964;-65
2021/10/20 10:34:06;;;;;;;3.47;2.15;;;;;;;21.93;56.94;99735.17;2939094;81;20967;-66
2021/10/20 10:38:08;;;;;;;5.55;2.00;;;;;;;22.15;58.45;99715.05;2938790;81;20983;-66
2021/10/20 10:42:10;;;;;;;3.65;2.10;;;;;;;22.29;56.58;99707.17;2938971;81;20928;-66
2021/10/20 10:46:13;;;;;;;3.25;1.85;;;;;;;22.48;56.67;99701.33;2938927;81;20999;-67
2021/10/20 10:50:17;;;;;;;2.17;1.47;;;;;;;22.63;56.53;99686.14;2939682;81;21450;-66
2021/10/20 10:54:24;;;;;;;5.03;2.35;;;;;;;22.52;55.72;99685.48;2938985;81;21300;-67
2021/10/20 10:58:26;;;;;;;2.85;2.10;;;;;;;22.58;56.78;99687.84;2872467;83;21003;-66
2021/10/20 11:02:46;;;;;;;4.40;2.33;;;;;;;22.68;55.96;99675.45;2835084;84;21055;-68
2021/10/20 11:06:51;;;;;;;5.67;1.60;;;;;;;22.74;55.41;99675.11;2830692;84;21426;-66
2021/10/20 11:10:54;;;;;;;2.50;1.77;;;;;;;22.78;55.57;99660.05;2827857;84;21027;-68
2021/10/20 11:14:58;;;;;;;2.85;2.12;;;;;;;22.93;55.32;99654.81;2827906;84;21051;-67
2021/10/20 11:18:59;;;;;;;3.15;2.08;;;;;;;23.00;55.56;99646.62;2827554;84;21035;-67
2021/10/20 11:23:13;;;;;;;3.37;2.17;;;;;;;23.08;54.87;99636.28;2827516;84;20964;-68
2021/10/20 11:27:16;;;;;;;5.87;2.25;;;;;;;23.25;55.77;99623.48;2827677;84;21027;-66
2021/10/20 11:31:18;;;;;;;1.87;1.77;;;;;;;23.31;55.38;99620.44;2823306;83;21261;-66
2021/10/20 11:35:24;;;;;;;2.70;1.72;;;;;;;23.41;54.99;99613.97;2827799;84;21000;-67
2021/10/20 11:39:29;;;;;;;3.92;1.70;;;;;;;23.39;53.76;99603.33;2827670;84;21079;-66
2021/10/20 11:43:39;;;;;;;3.55;2.30;;;;;;;23.33;52.92;99596.10;2828018;84;20988;-66
2021/10/20 11:48:04;;;;;;;2.37;1.60;;;;;;;23.37;52.91;99588.31;2827518;84;21115;-66
2021/10/20 11:52:15;;;;;;;2.42;1.92;;;;;;;23.27;52.64;99568.50;2827595;84;21080;-68
2021/10/20 11:56:17;;;;;;;3.42;1.77;;;;;;;23.41;53.53;99574.62;2827475;84;21043;-66
2021/10/20 12:00:20;;;;;;;2.30;2.10;;;;;;;23.52;52.49;99568.41;2827539;84;21490;-66
2021/10/20 12:04:24;;;;;;;1.80;1.62;;;;;;;23.51;52.31;99554.53;2827718;84;20987;-69
2021/10/20 12:08:26;;;;;;;1.65;1.55;;;;;;;23.50;52.04;99553.42;2861482;83;21019;-67
2021/10/20 12:12:30;;;;;;;1.70;1.42;;;;;;;23.57;53.69;99545.16;2862970;82;21034;-67
2021/10/20 12:16:34;;;;;;;4.25;1.70;;;;;;;23.51;53.13;99536.89;2865247;83;20999;-68
2021/10/20 12:20:37;;;;;;;2.87;2.12;;;;;;;23.59;52.03;99534.93;2865245;83;20991;-67
2021/10/20 12:24:49;;;;;;;3.67;1.00;;;;;;;23.57;51.56;99524.30;2838892;83;21003;-67
2021/10/20 12:28:51;;;;;;;2.75;1.70;;;;;;;23.54;51.01;99513.91;2865177;83;20971;-66
2021/10/20 12:32:52;;;;;;;2.33;1.50;;;;;;;23.62;52.31;99505.42;2865355;82;21078;-66
2021/10/20 12:36:55;;;;;;;3.52;2.10;;;;;;;23.53;51.30;99498.13;2865359;83;21014;-66
2021/10/20 12:40:57;;;;;;;1.72;1.60;;;;;;;23.52;50.61;99495.12;2862732;82;21070;-67
2021/10/20 12:45:00;;;;;;;3.98;1.85;;;;;;;23.48;51.02;99491.22;2863112;82;21030;-70
2021/10/20 12:49:08;;;;;;;6.87;2.33;;;;;;;23.51;50.28;99492.11;2865398;83;21031;-66
2021/10/20 12:53:16;;;;;;;5.20;2.10;;;;;;;23.52;50.43;99485.63;2865740;83;21014;-64
2021/10/20 12:57:18;;;;;;;3.55;1.22;;;;;;;23.53;51.56;99487.27;2865703;83;21022;-64
2021/10/20 13:01:20;;;;;;;1.65;1.32;;;;;;;23.51;51.55;99474.47;2865679;83;21006;-65
2021/10/20 13:05:23;;;;;;;5.28;2.65;;;;;;;23.56;52.36;99453.94;2865882;83;21446;-71
2021/10/20 13:09:27;;;;;;;3.75;1.90;;;;;;;23.67;53.15;99455.87;2865871;83;21007;-72
2021/10/20 13:13:28;;;;;;;4.45;1.77;;;;;;;23.81;53.19;99444.27;2865551;83;21007;-71
2021/10/20 13:17:30;;;;;;;6.97;1.92;;;;;;;23.85;52.83;99459.56;2865848;83;21056;-69
2021/10/20 13:21:32;;;;;;;3.25;1.82;;;;;;;23.86;52.67;99455.23;2852438;82;21026;-69
2021/10/20 13:25:52;;;;;;;2.15;1.52;;;;;;;23.82;51.68;99458.97;2839133;83;21027;-65
2021/10/20 13:29:54;;;;;;;6.25;2.15;;;;;;;23.73;53.12;99459.00;2843799;83;21003;-69
2021/10/20 13:34:19;;;;;;;4.12;2.27;;;;;;;23.59;53.33;99447.53;2817347;83;20971;-69
2021/10/20 13:38:23;;;;;;;2.60;2.00;;;;;;;23.61;54.18;99439.16;2832943;83;21004;-70
2021/10/20 13:42:25;;;;;;;4.20;1.80;;;;;;;23.65;54.03;99436.28;2804367;84;20964;-68
2021/10/20 13:46:28;;;;;;;4.58;2.08;;;;;;;23.70;53.49;99423.37;2830829;81;20999;-70
2021/10/20 13:50:29;;;;;;;8.05;3.35;;;;;;;23.61;54.05;99417.45;2852202;83;21255;-71
2021/10/20 13:54:31;;;;;;;5.53;2.45;;;;;;;23.41;54.60;99429.45;2852097;83;21023;-67
2021/10/20 13:58:34;;;;;;;6.58;3.50;;;;;;;23.24;55.76;99421.92;2823450;83;36993;-68
2021/10/20 14:02:36;;;;;;;5.35;1.98;;;;;;;23.21;56.41;99412.89;2852419;83;21051;-71
2021/10/20 14:06:38;;;;;;;9.25;3.65;;;;;;;23.17;56.68;99400.83;2841630;83;21001;-68
2021/10/20 14:10:44;;;;;;;6.45;2.95;;;;;;;23.06;56.41;99388.08;2818394;84;21092;-70
2021/10/20 14:14:47;;;;;;;3.75;2.58;;;;;;;23.04;56.39;99386.13;2818841;84;20984;-68
2021/10/20 14:18:48;;;;;;;4.85;2.80;;;;;;;22.88;56.17;99374.86;2818689;84;20976;-67
2021/10/20 14:22:50;;;;;;;7.60;2.85;;;;;;;22.76;56.45;99359.90;2818657;84;21008;-67
2021/10/20 14:26:53;;;;;;;5.70;2.77;;;;;;;22.71;56.82;99354.86;2818804;84;21059;-68
2021/10/20 14:30:54;;;;;;;4.22;2.70;;;;;;;22.71;58.28;99344.86;2818599;84;21103;-67
2021/10/20 14:34:57;;;;;;;6.85;3.15;;;;;;;22.58;58.83;99348.55;2818868;84;21000;-65
2021/10/20 14:38:59;;;;;;;5.90;2.80;;;;;;;22.52;59.00;99350.31;2818742;84;21250;-67
2021/10/20 14:43:02;;;;;;;6.12;3.52;;;;;;;22.46;59.24;99340.88;2818594;84;21060;-68
2021/10/20 14:47:04;;;;;;;5.58;2.65;;;;;;;22.39;59.50;99346.37;2818771;83;21005;-65
2021/10/20 14:51:05;;;;;;;5.33;3.65;;;;;;;22.33;59.96;99333.73;2818543;84;21016;-70
2021/10/20 14:55:08;;;;;;;4.78;4.10;;;;;;;22.32;61.20;99328.02;2818732;84;20960;-65
2021/10/20 14:59:10;;;;;;;7.78;4.03;;;;;;;22.23;61.38;99326.14;2818697;84;21052;-67
2021/10/20 15:03:13;;;;;;;9.78;5.55;;;;;;;22.15;61.92;99310.18;2818820;84;21036;-68
2021/10/20 15:07:15;;;;;;;7.30;4.55;;;;;;;22.15;62.81;99314.24;2817244;82;21009;-68
2021/10/20 15:11:19;;;;;;;8.33;4.87;;;;;;;22.07;63.14;99308.09;2815278;84;21075;-66
2021/10/20 15:15:21;;;;;;;6.97;4.27;;;;;;;22.07;63.35;99301.31;2815703;84;20988;-65
2021/10/20 15:19:34;;;;;;;9.00;5.15;;;;;;;22.06;63.31;99298.31;2815331;84;21044;-65
2021/10/20 15:23:30;;;;;;;7.67;4.45;;;;;;;22.04;63.83;99300.93;2814503;84;21024;-65
2021/10/20 15:27:32;;;;;;;5.87;4.53;;;;;;;21.94;64.32;99298.75;2815383;84;21028;-69
2021/10/20 15:31:34;;;;;;;9.73;6.10;;;;;;;21.87;64.11;99285.28;2815216;84;21020;-66
2021/10/20 15:35:41;;;;;;;7.62;6.05;;;;;;;21.82;64.26;99270.25;2815083;84;21029;-65
2021/10/20 15:39:41;;;;;;;6.97;5.17;;;;;;;21.74;64.04;99264.60;2814784;84;21004;-72
2021/10/20 15:43:45;;;;;;;8.70;5.80;;;;;;;21.63;64.51;99258.56;2815369;84;21013;-66
2021/10/20 15:47:47;;;;;;;8.68;4.12;;;;;;;21.61;63.92;99261.48;2815230;84;21040;-67
2021/10/20 15:51:49;;;;;;;8.80;4.42;;;;;;;21.61;63.82;99261.48;2815393;84;20977;-70
2021/10/20 15:59:51;;;;;;;8.15;5.58;;;;;;;21.45;63.99;99273.72;2779238;83;21084;-65
2021/10/20 16:03:52;;;;;;;6.70;4.95;;;;;;;21.35;64.06;99285.04;2774845;86;21013;-70
2021/10/20 16:07:54;;;;;;;10.70;4.70;;;;;;;21.24;64.43;99283.04;2765264;86;21048;-72
2021/10/20 16:11:56;;;;;;;7.80;4.97;;;;;;;21.11;64.47;99277.22;2729455;86;21064;-64
2021/10/20 16:15:59;;;;;;;8.68;4.37;;;;;;;20.99;64.79;99279.81;2708488;86;21007;-67
2021/10/20 16:20:02;;;;;;;7.85;5.22;;;;;;;20.82;64.78;99303.81;2702389;87;21020;-68
2021/10/20 16:24:05;;;;;;;7.08;5.70;;;;;;;20.81;65.02;99303.00;2702489;88;21043;-69
2021/10/20 16:28:09;;;;;;;7.15;4.55;;;;;;;20.73;65.20;99298.34;2702554;87;21106;-64
2021/10/20 16:32:11;;;;;;;9.43;5.25;;;;;;;20.57;65.52;99305.09;2702407;87;20980;-70
2021/10/20 16:36:13;;;;;;;8.03;5.85;;;;;;;20.49;65.61;99300.22;2702595;88;21078;-62
2021/10/20 16:40:17;;;;;;;5.87;4.75;;;;;;;20.43;65.60;99291.64;2702575;88;21066;-66
2021/10/20 16:44:19;;;;;;;9.55;6.75;;;;;;;20.40;65.82;99280.73;2702241;88;20980;-67
2021/10/20 16:48:21;;;;;;;12.13;6.42;;;;;;;20.41;65.58;99282.92;2702437;88;21000;-66
2021/10/20 16:52:23;;;;;;;6.62;5.65;;;;;;;20.44;65.52;99289.75;2733052;86;21013;-67
2021/10/20 16:56:25;;;;;;;8.98;6.33;;;;;;;20.35;65.39;99279.74;2771431;86;21009;-70
2021/10/20 17:00:27;;;;;;;7.33;6.62;;;;;;;20.26;65.54;99263.77;2726970;86;20996;-67
2021/10/20 17:04:35;;;;;;;12.28;7.37;;;;;;;20.22;65.34;99256.30;2770024;83;21041;-67
2021/10/20 17:08:37;;;;;;;9.50;6.37;;;;;;;20.11;65.40;99253.76;2724783;86;21000;-67
2021/10/20 17:12:51;;;;;;;17.25;9.23;;;;;;;20.06;65.59;99262.52;2762512;86;21043;-67
2021/10/20 17:16:53;;;;;;;8.18;7.03;;;;;;;19.95;66.09;99262.66;2727680;85;20996;-73
2021/10/20 17:20:56;;;;;;;9.18;7.25;;;;;;;19.85;65.92;99266.28;2722835;86;21052;-66
2021/10/20 17:25:04;;;;;;;17.17;7.90;;;;;;;19.74;66.16;99275.85;2722461;87;21064;-67
2021/10/20 17:29:06;;;;;;;13.68;7.58;;;;;;;19.65;66.12;99271.20;2767014;86;21056;-67
2021/10/20 17:33:07;;;;;;;18.50;9.05;;;;;;;19.61;66.29;99289.36;2728765;86;21002;-66
2021/10/20 17:37:10;;;;;;;10.10;8.03;;;;;;;19.53;66.34;99285.84;2722872;87;21104;-67
2021/10/20 17:41:12;;;;;;;12.85;8.58;;;;;;;19.42;66.35;99285.12;2722387;87;21001;-69
2021/10/20 17:45:17;;;;;;;9.50;8.15;;;;;;;19.37;66.63;99287.62;2732629;86;21064;-67
2021/10/20 17:49:39;;;;;;;16.05;8.85;;;;;;;19.24;67.00;99287.92;2769911;86;21053;-64
2021/10/20 17:53:41;;;;;;;11.57;7.83;;;;;;;19.18;67.02;99273.94;2769794;85;21087;-68
2021/10/20 17:57:42;;;;;;;23.47;9.55;;;;;;;19.13;66.94;99282.63;2776177;85;20996;-73
2021/10/20 18:01:50;;;;;;;14.30;8.18;;;;;;;19.09;67.02;99275.19;2802295;84;21016;-79
2021/10/20 18:05:52;;;;;;;11.60;8.68;;;;;;;19.01;67.25;99265.94;2802456;85;21028;-74
2021/10/20 18:09:56;;;;;;;13.50;9.05;;;;;;;19.00;67.32;99281.80;2771955;83;21019;-67
2021/10/20 18:14:03;;;;;;;9.75;8.30;;;;;;;18.96;67.22;99274.10;2772789;84;21173;-66
2021/10/20 18:18:06;;;;;;;12.50;8.23;;;;;;;18.97;67.12;99278.98;2755837;86;21106;-68
2021/10/20 18:22:13;;;;;;;10.43;6.75;;;;;;;18.89;67.42;99274.63;2783331;84;21064;-66
2021/10/20 18:26:19;;;;;;;8.03;7.15;;;;;;;18.81;67.20;99272.95;2788277;84;20988;-71
2021/10/20 18:34:53;;;;;;;7.53;6.75;;;;;;;18.68;67.36;99252.21;2796939;84;21035;-70
2021/10/20 18:38:56;;;;;;;9.55;7.58;;;;;;;18.60;67.39;99261.81;2794373;83;21074;-72
2021/10/20 18:43:03;;;;;;;9.50;7.10;;;;;;;18.59;67.38;99266.07;2773343;83;21019;-75
2021/10/20 18:47:08;;;;;;;10.63;7.60;;;;;;;18.52;67.54;99247.20;2783462;85;21355;-72
2021/10/20 18:51:13;;;;;;;9.08;7.80;;;;;;;18.52;67.94;99243.97;2801668;85;22280;-68
2021/10/20 18:55:17;;;;;;;8.73;7.73;;;;;;;18.44;67.82;99242.83;2801888;85;21000;-70
2021/10/20 18:59:24;;;;;;;13.08;8.53;;;;;;;18.53;68.07;99252.90;2782386;85;21087;-68
2021/10/20 19:03:30;;;;;;;8.68;7.30;;;;;;;18.48;68.30;99254.84;2765639;86;21080;-67
2021/10/20 19:07:36;;;;;;;13.03;8.88;;;;;;;18.43;68.17;99236.29;2766074;86;21072;-68
2021/10/20 19:11:39;;;;;;;11.03;8.45;;;;;;;18.33;68.20;99232.14;2765322;85;21036;-67
2021/10/20 19:15:46;;;;;;;12.68;8.68;;;;;;;18.31;68.07;99250.36;2764089;85;21040;-64